createdAt,value
2024-02-07T00:01:14.789Z,6.90
2024-02-07T00:03:41.377Z,3.67
2024-02-07T00:06:08.053Z,5.63
2024-02-07T00:08:34.784Z,4.38
2024-02-07T00:11:01.450Z,5.68
2024-02-07T00:13:28.063Z,6.93
2024-02-07T00:15:54.650Z,3.78
2024-02-07T00:18:21.204Z,3.80
2024-02-07T00:20:47.775Z,3.67
2024-02-07T00:23:14.474Z,4.85
2024-02-07T00:25:41.190Z,3.28
2024-02-07T00:28:07.720Z,3.42
2024-02-07T00:30:38.993Z,3.25
2024-02-07T00:33:07.132Z,3.42
2024-02-07T00:35:33.893Z,3.40
2024-02-07T00:38:00.580Z,2.88
2024-02-07T00:40:27.217Z,3.47
2024-02-07T00:42:53.771Z,2.92
2024-02-07T00:45:20.282Z,2.38
2024-02-07T00:47:46.837Z,3.47
2024-02-07T00:50:13.492Z,4.72
2024-02-07T00:52:40.077Z,3.25
2024-02-07T00:55:07.216Z,2.97
2024-02-07T00:57:33.818Z,3.15
2024-02-07T01:00:00.379Z,2.47
2024-02-07T01:02:26.942Z,2.22
2024-02-07T01:04:53.553Z,2.30
2024-02-07T01:07:20.351Z,3.50
2024-02-07T01:09:46.991Z,3.08
2024-02-07T01:12:13.518Z,2.38
2024-02-07T01:14:40.079Z,2.50
2024-02-07T01:17:06.641Z,2.05
2024-02-07T01:19:33.305Z,3.22
2024-02-07T01:21:59.908Z,3.72
2024-02-07T01:24:26.418Z,1.50
2024-02-07T01:26:53.107Z,1.85
2024-02-07T01:29:19.639Z,2.03
2024-02-07T01:31:46.221Z,1.70
2024-02-07T01:34:12.917Z,1.85
2024-02-07T01:36:46.844Z,2.53
2024-02-07T01:39:13.376Z,1.13
2024-02-07T01:41:40.000Z,2.00
2024-02-07T01:44:06.564Z,1.63
2024-02-07T01:46:33.176Z,1.45
2024-02-07T01:48:59.757Z,1.67
2024-02-07T01:51:26.314Z,1.30
2024-02-07T01:53:52.830Z,1.42
2024-02-07T01:56:19.502Z,1.60
2024-02-07T01:58:46.283Z,2.08
2024-02-07T02:01:13.128Z,2.00
2024-02-07T02:03:39.849Z,1.58
2024-02-07T02:06:06.529Z,1.23
2024-02-07T02:08:33.145Z,1.88
2024-02-07T02:11:05.740Z,1.98
2024-02-07T02:13:32.899Z,1.50
2024-02-07T02:15:59.447Z,1.08
2024-02-07T02:18:25.973Z,1.80
2024-02-07T02:20:52.522Z,1.88
2024-02-07T02:23:57.206Z,2.58
2024-02-07T02:26:45.544Z,0.95
2024-02-07T02:29:32.815Z,1.80
2024-02-07T02:32:01.568Z,1.50
2024-02-07T02:34:29.051Z,2.00
2024-02-07T02:36:55.939Z,1.05
2024-02-07T02:39:27.720Z,3.30
2024-02-07T02:41:54.250Z,1.17
2024-02-07T02:44:21.019Z,1.02
2024-02-07T02:46:47.706Z,1.08
2024-02-07T02:49:14.323Z,1.02
2024-02-07T02:51:40.901Z,1.25
2024-02-07T02:54:07.455Z,1.52
2024-02-07T02:56:34.051Z,2.03
2024-02-07T02:59:00.661Z,1.10
2024-02-07T03:01:27.408Z,0.77
2024-02-07T03:03:54.085Z,0.77
2024-02-07T03:06:21.123Z,1.27
2024-02-07T03:08:47.829Z,1.85
2024-02-07T03:11:14.361Z,0.73
2024-02-07T03:13:40.989Z,1.10
2024-02-07T03:16:07.888Z,1.30
2024-02-07T03:18:36.047Z,1.00
2024-02-07T03:21:06.746Z,1.58
2024-02-07T03:23:34.331Z,1.23
2024-02-07T03:26:01.638Z,1.35
2024-02-07T03:28:29.039Z,1.20
2024-02-07T03:30:55.623Z,1.65
2024-02-07T03:33:22.228Z,1.25
2024-02-07T03:35:49.227Z,1.88
2024-02-07T03:38:15.745Z,0.98
2024-02-07T03:40:42.317Z,0.52
2024-02-07T03:43:08.964Z,0.60
2024-02-07T03:45:35.729Z,1.02
2024-02-07T03:48:02.344Z,1.83
2024-02-07T03:50:28.997Z,0.95
2024-02-07T03:52:55.618Z,1.50
2024-02-07T03:55:22.358Z,0.95
2024-02-07T03:57:49.114Z,0.82
2024-02-07T04:00:16.955Z,0.70
2024-02-07T04:02:49.075Z,1.15
2024-02-07T04:05:17.879Z,0.75
2024-02-07T04:07:44.908Z,1.38
2024-02-07T04:10:12.100Z,1.20
2024-02-07T04:12:39.385Z,1.40
2024-02-07T04:15:09.480Z,1.52
2024-02-07T04:17:35.993Z,1.58
2024-02-07T04:20:03.092Z,1.15
2024-02-07T04:22:29.743Z,0.73
2024-02-07T04:24:56.338Z,1.23
2024-02-07T04:27:22.879Z,0.93
2024-02-07T04:29:49.404Z,1.42
2024-02-07T04:32:15.976Z,0.93
2024-02-07T04:34:42.935Z,0.95
2024-02-07T04:37:09.516Z,0.95
2024-02-07T04:39:36.064Z,1.63
2024-02-07T04:42:02.612Z,1.77
2024-02-07T04:44:29.253Z,1.27
2024-02-07T04:46:55.844Z,0.95
2024-02-07T04:49:22.518Z,1.38
2024-02-07T04:51:49.035Z,1.08
2024-02-07T04:54:15.818Z,0.80
2024-02-07T04:56:42.335Z,1.00
2024-02-07T04:59:08.882Z,1.45
2024-02-07T05:01:35.552Z,0.52
2024-02-07T05:04:02.105Z,1.27
2024-02-07T05:06:28.668Z,1.17
2024-02-07T05:08:55.197Z,1.77
2024-02-07T05:11:21.697Z,1.05
2024-02-07T05:13:48.320Z,1.40
2024-02-07T05:16:15.029Z,1.30
2024-02-07T05:18:42.200Z,1.27
2024-02-07T05:21:13.743Z,1.23
2024-02-07T05:23:43.767Z,1.23
2024-02-07T05:26:10.586Z,2.03
2024-02-07T05:28:37.192Z,1.42
2024-02-07T05:31:04.271Z,1.48
2024-02-07T05:33:31.145Z,1.40
2024-02-07T05:35:57.813Z,1.60
2024-02-07T05:38:24.530Z,1.50
2024-02-07T05:40:51.109Z,2.05
2024-02-07T05:43:17.721Z,2.33
2024-02-07T05:45:44.235Z,1.75
2024-02-07T05:48:10.788Z,3.58
2024-02-07T05:50:37.348Z,1.85
2024-02-07T05:53:04.012Z,3.17
2024-02-07T05:55:30.609Z,1.60
2024-02-07T05:57:57.185Z,3.20
2024-02-07T06:00:23.824Z,2.63
2024-02-07T06:02:50.382Z,3.08
2024-02-07T06:05:17.020Z,2.33
2024-02-07T06:07:43.880Z,3.20
2024-02-07T06:10:10.642Z,4.38
2024-02-07T06:12:37.184Z,2.90
2024-02-07T06:15:03.903Z,3.95
2024-02-07T06:17:30.609Z,4.13
2024-02-07T06:19:57.529Z,3.88
2024-02-07T06:22:24.323Z,3.75
2024-02-07T06:24:50.925Z,4.55
2024-02-07T06:27:17.501Z,4.95
2024-02-07T06:29:44.073Z,3.88
2024-02-07T06:32:10.588Z,4.75
2024-02-07T06:34:37.185Z,4.18
2024-02-07T06:37:03.928Z,4.72
2024-02-07T06:39:30.526Z,5.45
2024-02-07T06:41:57.057Z,5.03
2024-02-07T06:44:23.628Z,4.68
2024-02-07T06:46:50.400Z,4.63
2024-02-07T06:49:17.185Z,4.22
2024-02-07T06:51:44.121Z,5.00
2024-02-07T06:54:10.626Z,4.93
2024-02-07T06:56:37.161Z,6.78
2024-02-07T06:59:03.837Z,5.72
2024-02-07T07:01:30.567Z,6.13
2024-02-07T07:03:57.132Z,6.18
2024-02-07T07:06:23.798Z,5.75
2024-02-07T07:08:50.362Z,6.28
2024-02-07T07:11:16.948Z,6.35
2024-02-07T07:13:43.476Z,4.78
2024-02-07T07:16:10.061Z,5.90
2024-02-07T07:18:36.606Z,5.28
2024-02-07T07:21:03.174Z,5.72
2024-02-07T07:23:29.702Z,7.85
2024-02-07T07:25:56.314Z,6.20
2024-02-07T07:28:22.986Z,5.32
2024-02-07T07:30:49.559Z,8.48
2024-02-07T07:33:16.118Z,6.32
2024-02-07T07:35:42.704Z,6.95
2024-02-07T07:38:09.342Z,7.78
2024-02-07T07:40:37.966Z,7.47
2024-02-07T07:43:04.686Z,7.95
2024-02-07T07:45:31.231Z,6.32
2024-02-07T07:47:57.893Z,7.68
2024-02-07T07:50:24.751Z,7.93
2024-02-07T07:52:51.421Z,7.90
2024-02-07T07:55:18.001Z,7.35
2024-02-07T07:57:44.536Z,9.13
2024-02-07T08:00:11.498Z,7.90
2024-02-07T08:02:38.014Z,8.35
2024-02-07T08:05:05.014Z,9.25
2024-02-07T08:07:31.738Z,7.72
2024-02-07T08:09:58.341Z,7.90
2024-02-07T08:12:24.886Z,6.65
2024-02-07T08:14:51.923Z,8.70
2024-02-07T08:17:18.555Z,6.90
2024-02-07T08:19:46.384Z,7.57
2024-02-07T08:22:13.089Z,7.68
2024-02-07T08:24:39.890Z,7.40
2024-02-07T08:27:06.469Z,7.20
2024-02-07T08:29:32.970Z,8.27
2024-02-07T08:32:01.790Z,6.95
2024-02-07T08:34:29.121Z,8.07
2024-02-07T08:36:55.794Z,7.80
2024-02-07T08:39:22.395Z,7.13
2024-02-07T08:41:48.967Z,7.47
2024-02-07T08:44:15.477Z,7.53
2024-02-07T08:46:42.008Z,7.18
2024-02-07T08:49:08.610Z,6.93
2024-02-07T08:51:35.187Z,6.80
2024-02-07T08:54:01.748Z,6.35
2024-02-07T08:56:28.260Z,5.35
2024-02-07T08:58:54.812Z,8.82
2024-02-07T09:01:21.453Z,6.43
2024-02-07T09:03:48.030Z,6.97
2024-02-07T09:06:14.857Z,6.20
2024-02-07T09:08:41.569Z,8.13
2024-02-07T09:11:08.139Z,6.15
2024-02-07T09:13:34.733Z,6.43
2024-02-07T09:16:01.301Z,6.50
2024-02-07T09:18:27.887Z,5.15
2024-02-07T09:20:54.492Z,7.60
2024-02-07T09:23:21.227Z,6.00
2024-02-07T09:25:47.995Z,6.70
2024-02-07T09:28:14.678Z,7.28
2024-02-07T09:30:41.375Z,5.32
2024-02-07T09:33:11.465Z,6.03
2024-02-07T09:35:38.650Z,6.35
2024-02-07T09:38:05.434Z,6.95
2024-02-07T09:40:32.476Z,5.65
2024-02-07T09:43:01.614Z,5.35
2024-02-07T09:45:34.218Z,4.85
2024-02-07T09:48:21.374Z,6.78
2024-02-07T09:50:53.482Z,6.82
2024-02-07T09:53:21.426Z,5.53
2024-02-07T09:55:50.490Z,4.82
2024-02-07T09:58:17.424Z,5.70
2024-02-07T10:00:44.032Z,5.95
2024-02-07T10:03:14.406Z,6.78
2024-02-07T10:05:46.631Z,4.55
2024-02-07T10:08:13.581Z,6.90
2024-02-07T10:10:45.864Z,6.60
2024-02-07T10:13:15.371Z,4.90
2024-02-07T10:15:45.884Z,6.88
2024-02-07T10:18:12.839Z,5.13
2024-02-07T10:20:39.629Z,7.15
2024-02-07T10:23:09.462Z,4.93
2024-02-07T10:25:36.248Z,5.35
2024-02-07T10:28:04.871Z,4.22
2024-02-07T10:30:32.030Z,5.20
2024-02-07T10:32:59.396Z,3.78
2024-02-07T10:35:26.095Z,5.72
2024-02-07T10:37:53.313Z,4.40
2024-02-07T10:40:20.965Z,5.25
2024-02-07T10:42:58.580Z,3.97
2024-02-07T10:45:25.420Z,4.80
2024-02-07T10:47:52.959Z,5.18
2024-02-07T10:50:21.684Z,4.60
2024-02-07T10:52:51.447Z,4.53
2024-02-07T10:55:18.260Z,6.35
2024-02-07T10:57:53.028Z,4.80
2024-02-07T11:02:46.649Z,4.25
2024-02-07T11:05:14.255Z,3.63
2024-02-07T11:07:41.159Z,4.53
2024-02-07T11:10:09.932Z,6.00
2024-02-07T11:12:37.531Z,5.43
2024-02-07T11:15:04.410Z,5.68
2024-02-07T11:17:30.990Z,7.53
2024-02-07T11:19:57.830Z,4.82
2024-02-07T11:22:34.074Z,4.00
2024-02-07T11:25:01.317Z,5.05
2024-02-07T11:27:27.859Z,4.35
2024-02-07T11:29:54.751Z,3.65
2024-02-07T11:32:21.368Z,3.88
2024-02-07T11:35:05.030Z,4.22
2024-02-07T11:37:38.832Z,4.82
2024-02-07T11:40:14.115Z,5.47
2024-02-07T11:42:41.992Z,3.40
2024-02-07T11:45:16.752Z,4.25
2024-02-07T11:47:43.408Z,3.67
2024-02-07T11:50:15.139Z,3.08
2024-02-07T11:52:43.959Z,4.70
2024-02-07T11:55:15.720Z,3.95
2024-02-07T11:58:00.404Z,3.88
2024-02-07T12:00:27.261Z,3.50
2024-02-07T12:02:53.985Z,4.63
2024-02-07T12:05:21.693Z,5.07
2024-02-07T12:07:49.364Z,2.45
2024-02-07T12:10:16.969Z,3.60
2024-02-07T12:12:43.662Z,4.50
2024-02-07T12:15:10.526Z,4.45
2024-02-07T12:17:37.187Z,3.22
2024-02-07T12:20:04.728Z,4.57
2024-02-07T12:22:31.980Z,3.65
2024-02-07T12:24:59.204Z,2.70
2024-02-07T12:27:26.722Z,4.35
2024-02-07T12:29:57.878Z,3.15
2024-02-07T12:32:25.552Z,3.67
2024-02-07T12:34:52.868Z,4.18
2024-02-07T12:37:20.319Z,3.70
2024-02-07T12:39:51.897Z,3.03
2024-02-07T12:42:21.551Z,3.20
2024-02-07T12:44:49.469Z,3.78
2024-02-07T12:47:16.540Z,4.65
2024-02-07T12:49:43.352Z,4.65
2024-02-07T12:52:11.077Z,3.67
2024-02-07T12:54:38.003Z,4.45
2024-02-07T12:57:04.687Z,3.65
2024-02-07T12:59:38.334Z,5.30
2024-02-07T13:02:09.887Z,4.53
2024-02-07T13:04:36.588Z,5.43
2024-02-07T13:07:04.717Z,3.40
2024-02-07T13:09:31.209Z,3.35
2024-02-07T13:11:58.202Z,3.60
2024-02-07T13:14:25.078Z,3.35
2024-02-07T13:16:52.913Z,4.00
2024-02-07T13:19:20.346Z,3.60
2024-02-07T13:21:47.825Z,3.13
2024-02-07T13:24:19.136Z,2.63
2024-02-07T13:26:47.157Z,2.90
2024-02-07T13:29:14.529Z,4.82
2024-02-07T13:31:41.961Z,4.38
2024-02-07T13:34:13.122Z,3.00
2024-02-07T13:36:39.999Z,3.85
2024-02-07T13:39:07.400Z,5.25
2024-02-07T13:41:34.897Z,3.28
2024-02-07T13:44:01.812Z,2.70
2024-02-07T13:46:28.644Z,2.50
2024-02-07T13:48:55.210Z,4.03
2024-02-07T13:51:21.794Z,5.03
2024-02-07T13:53:48.316Z,2.53
2024-02-07T13:56:15.103Z,3.45
2024-02-07T13:58:41.819Z,2.88
2024-02-07T14:01:09.235Z,3.42
2024-02-07T14:03:35.816Z,4.07
2024-02-07T14:06:02.377Z,4.35
2024-02-07T14:08:29.266Z,2.95
2024-02-07T14:10:55.997Z,2.65
2024-02-07T14:13:22.727Z,3.45
2024-02-07T14:15:49.262Z,3.55
2024-02-07T14:18:15.888Z,3.25
2024-02-07T14:20:42.899Z,3.85
2024-02-07T14:23:09.597Z,2.58
2024-02-07T14:25:36.119Z,3.65
2024-02-07T14:28:02.639Z,2.47
2024-02-07T14:30:29.218Z,4.00
2024-02-07T14:32:55.899Z,4.20
2024-02-07T14:35:22.524Z,4.15
2024-02-07T14:37:49.140Z,2.13
2024-02-07T14:40:16.058Z,3.75
2024-02-07T14:42:42.679Z,3.10
2024-02-07T14:45:12.590Z,3.95
2024-02-07T14:47:39.680Z,2.97
2024-02-07T14:50:06.719Z,3.75
2024-02-07T14:52:33.446Z,3.65
2024-02-07T14:55:00.007Z,5.18
2024-02-07T14:57:26.527Z,3.17
2024-02-07T14:59:54.229Z,2.65
2024-02-07T15:02:20.874Z,6.07
2024-02-07T15:04:47.534Z,3.88
2024-02-07T15:07:14.178Z,4.28
2024-02-07T15:09:43.278Z,3.90
2024-02-07T15:12:10.879Z,3.97
2024-02-07T15:14:37.356Z,2.35
2024-02-07T15:17:04.310Z,2.35
2024-02-07T15:19:31.192Z,5.38
2024-02-07T15:21:57.688Z,4.57
2024-02-07T15:24:24.252Z,3.67
2024-02-07T15:26:50.788Z,3.75
2024-02-07T15:29:17.268Z,3.47
2024-02-07T15:31:43.914Z,2.70
2024-02-07T15:34:10.504Z,2.85
2024-02-07T15:36:37.091Z,3.05
2024-02-07T15:39:03.774Z,2.40
2024-02-07T15:41:30.257Z,2.75
2024-02-07T15:43:56.875Z,3.15
2024-02-07T15:46:23.610Z,4.95
2024-02-07T15:48:58.845Z,3.05
2024-02-07T15:51:33.610Z,3.42
2024-02-07T15:54:00.148Z,3.03
2024-02-07T15:56:26.845Z,2.95
2024-02-07T15:58:53.472Z,2.42
2024-02-07T16:01:30.417Z,4.35
2024-02-07T16:04:03.505Z,2.92
2024-02-07T16:06:35.759Z,3.08
2024-02-07T16:09:02.592Z,5.53
2024-02-07T16:11:29.109Z,3.25
2024-02-07T16:13:56.053Z,3.35
2024-02-07T16:16:22.747Z,6.30
2024-02-07T16:18:49.276Z,3.05
2024-02-07T16:21:15.785Z,4.03
2024-02-07T16:23:42.312Z,2.67
2024-02-07T16:26:08.940Z,2.55
2024-02-07T16:28:35.622Z,4.22
2024-02-07T16:31:07.647Z,3.70
2024-02-07T16:33:34.389Z,4.00
2024-02-07T16:36:01.011Z,4.30
2024-02-07T16:38:27.554Z,3.95
2024-02-07T16:40:54.111Z,3.72
2024-02-07T16:43:20.655Z,3.40
2024-02-07T16:45:47.891Z,3.67
2024-02-07T16:48:14.562Z,3.97
2024-02-07T16:50:41.154Z,3.78
2024-02-07T16:53:07.896Z,4.53
2024-02-07T16:55:34.462Z,3.90
2024-02-07T16:58:00.992Z,4.72
2024-02-07T17:00:27.568Z,4.72
2024-02-07T17:02:54.154Z,4.68
2024-02-07T17:05:20.753Z,3.50
2024-02-07T17:07:47.394Z,4.68
2024-02-07T17:10:14.000Z,4.15
2024-02-07T17:12:40.509Z,4.38
2024-02-07T17:15:07.475Z,5.18
2024-02-07T17:17:33.999Z,4.95
2024-02-07T17:20:00.645Z,4.60
2024-02-07T17:22:27.331Z,5.53
2024-02-07T17:24:53.880Z,6.57
2024-02-07T17:27:20.440Z,5.97
2024-02-07T17:29:55.463Z,5.78
2024-02-07T17:32:24.961Z,4.95
2024-02-07T17:34:51.497Z,6.30
2024-02-07T17:37:18.307Z,5.53
2024-02-07T17:39:44.879Z,5.75
2024-02-07T17:42:11.427Z,4.72
2024-02-07T17:44:37.935Z,5.35
2024-02-07T17:47:04.680Z,7.22
2024-02-07T17:49:31.341Z,4.80
2024-02-07T17:51:57.859Z,7.10
2024-02-07T17:54:24.495Z,7.63
2024-02-07T17:56:51.019Z,5.10
2024-02-07T17:59:17.588Z,4.55
2024-02-07T18:01:44.207Z,4.55
2024-02-07T18:04:10.918Z,6.55
2024-02-07T18:06:37.606Z,5.50
2024-02-07T18:09:04.258Z,6.30
2024-02-07T18:11:30.803Z,5.90
2024-02-07T18:13:57.358Z,5.63
2024-02-07T18:16:24.543Z,6.18
2024-02-07T18:18:51.401Z,7.88
2024-02-07T18:21:17.941Z,4.75
2024-02-07T18:23:44.674Z,7.90
2024-02-07T18:26:11.981Z,7.25
2024-02-07T18:28:39.673Z,6.95
2024-02-07T18:31:07.098Z,6.88
2024-02-07T18:33:34.233Z,7.15
2024-02-07T18:36:01.278Z,8.07
2024-02-07T18:38:27.925Z,9.18
2024-02-07T18:40:54.502Z,10.23
2024-02-07T18:43:24.191Z,6.85
2024-02-07T18:45:50.724Z,6.82
2024-02-07T18:48:17.361Z,6.75
2024-02-07T18:50:44.081Z,7.40
2024-02-07T18:53:10.734Z,5.68
2024-02-07T18:55:37.320Z,7.93
2024-02-07T18:58:05.248Z,9.32
2024-02-07T19:00:32.856Z,8.32
2024-02-07T19:02:59.575Z,9.27
2024-02-07T19:05:26.339Z,5.25
2024-02-07T19:07:53.058Z,9.15
2024-02-07T19:10:19.667Z,7.50
2024-02-07T19:12:46.250Z,5.97
2024-02-07T19:15:12.926Z,8.27
2024-02-07T19:17:39.740Z,7.28
2024-02-07T19:20:06.975Z,9.60
2024-02-07T19:22:33.609Z,8.23
2024-02-07T19:25:00.180Z,6.97
2024-02-07T19:27:26.688Z,7.53
2024-02-07T19:29:53.237Z,6.25
2024-02-07T19:32:19.768Z,8.52
2024-02-07T19:34:46.542Z,8.88
2024-02-07T19:37:13.201Z,7.10
2024-02-07T19:39:39.780Z,8.63
2024-02-07T19:42:06.344Z,8.50
2024-02-07T19:44:32.934Z,10.20
2024-02-07T19:46:59.533Z,11.57
2024-02-07T19:49:26.491Z,10.40
2024-02-07T19:51:53.205Z,9.25
2024-02-07T19:54:19.718Z,8.88
2024-02-07T19:56:46.319Z,9.50
2024-02-07T19:59:12.859Z,8.63
2024-02-07T20:01:39.433Z,8.80
2024-02-07T20:04:06.039Z,9.00
2024-02-07T20:06:32.721Z,7.88
2024-02-07T20:08:59.447Z,9.15
2024-02-07T20:11:26.026Z,8.20
2024-02-07T20:13:52.553Z,9.45
2024-02-07T20:16:19.241Z,8.63
2024-02-07T20:18:45.813Z,9.05
2024-02-07T20:21:12.350Z,8.98
2024-02-07T20:23:38.890Z,7.68
2024-02-07T20:26:07.017Z,9.77
2024-02-07T20:28:36.973Z,8.30
2024-02-07T20:31:03.679Z,6.32
2024-02-07T20:33:30.233Z,8.23
2024-02-07T20:35:56.860Z,9.18
2024-02-07T20:38:23.393Z,6.50
2024-02-07T20:40:50.050Z,7.53
2024-02-07T20:43:16.703Z,8.20
2024-02-07T20:45:43.277Z,8.02
2024-02-07T20:48:09.999Z,9.70
2024-02-07T20:50:36.742Z,7.75
2024-02-07T20:53:04.924Z,10.07
2024-02-07T20:55:31.519Z,7.53
2024-02-07T20:57:58.149Z,16.33
2024-02-07T21:00:24.764Z,7.03
2024-02-07T21:02:51.292Z,7.88
2024-02-07T21:05:17.909Z,8.52
2024-02-07T21:07:44.711Z,8.15
2024-02-07T21:10:11.944Z,8.95
2024-02-07T21:12:38.567Z,7.45
2024-02-07T21:15:06.176Z,8.38
2024-02-07T21:17:32.713Z,7.85
2024-02-07T21:19:59.187Z,7.68
2024-02-07T21:22:25.782Z,8.27
2024-02-07T21:24:52.391Z,8.82
2024-02-07T21:27:18.918Z,7.38
2024-02-07T21:29:45.551Z,6.70
2024-02-07T21:32:12.183Z,9.07
2024-02-07T21:34:39.056Z,8.05
2024-02-07T21:37:05.948Z,9.43
2024-02-07T21:39:33.933Z,7.15
2024-02-07T21:42:00.752Z,6.88
2024-02-07T21:44:30.339Z,5.90
2024-02-07T21:46:57.204Z,7.00
2024-02-07T21:49:23.819Z,9.38
2024-02-07T21:51:50.390Z,6.32
2024-02-07T21:54:16.966Z,7.68
2024-02-07T21:56:43.494Z,7.78
2024-02-07T21:59:10.089Z,6.82
2024-02-07T22:01:36.681Z,11.25
2024-02-07T22:04:03.299Z,8.00
2024-02-07T22:06:29.834Z,7.75
2024-02-07T22:08:56.520Z,7.43
2024-02-07T22:11:23.174Z,7.63
2024-02-07T22:13:49.864Z,6.72
2024-02-07T22:16:16.662Z,6.47
2024-02-07T22:18:43.250Z,7.60
2024-02-07T22:21:09.741Z,6.35
2024-02-07T22:23:36.558Z,5.97
2024-02-07T22:26:03.374Z,6.30
2024-02-07T22:28:30.010Z,7.47
2024-02-07T22:30:56.628Z,7.72
2024-02-07T22:33:23.229Z,7.63
2024-02-07T22:35:49.827Z,6.05
2024-02-07T22:38:16.357Z,6.07
2024-02-07T22:40:42.908Z,7.25
2024-02-07T22:43:09.482Z,7.22
2024-02-07T22:45:36.039Z,6.00
2024-02-07T22:48:02.647Z,6.68
2024-02-07T22:50:29.293Z,6.72
2024-02-07T22:52:56.126Z,6.93
2024-02-07T22:55:22.727Z,5.72
2024-02-07T22:57:49.312Z,7.40
2024-02-07T23:00:16.466Z,6.40
2024-02-07T23:02:43.645Z,6.22
2024-02-07T23:05:11.094Z,6.88
2024-02-07T23:07:37.825Z,6.20
2024-02-07T23:10:05.689Z,6.15
2024-02-07T23:12:32.458Z,5.55
2024-02-07T23:14:59.151Z,6.75
2024-02-07T23:17:26.306Z,7.22
2024-02-07T23:19:53.052Z,6.10
2024-02-07T23:22:19.557Z,5.38
2024-02-07T23:24:46.113Z,5.88
2024-02-07T23:27:12.761Z,5.57
2024-02-07T23:29:39.291Z,5.65
2024-02-07T23:32:06.563Z,7.55
2024-02-07T23:34:33.250Z,6.38
2024-02-07T23:36:59.852Z,6.22
2024-02-07T23:39:26.339Z,6.13
2024-02-07T23:41:52.849Z,6.85
2024-02-07T23:44:19.373Z,7.50
2024-02-07T23:46:45.920Z,5.60
2024-02-07T23:49:12.637Z,6.15
2024-02-07T23:51:39.176Z,7.40
2024-02-07T23:54:05.733Z,5.53
2024-02-07T23:56:32.263Z,5.47
2024-02-07T23:58:58.803Z,6.13
